Time;durP1;ratioP1;P1;durP2;ratioP2;P2;SDS_P1;SDS_P2;PMS_P1;PMS_P2;Temp;Humidity;BMP_temperature;BMP_pressure;BME280_temperature;BME280_humidity;BME280_pressure;Samples;Min_cycle;Max_cycle;Signal;HPM_P1;HPM_P2
2023/07/04 00:01:13;;;;;;;2.97;2.10;;;25.70;39.90;;;;;;5019760;28;88953;-95
2023/07/04 00:03:40;;;;;;;5.00;2.00;;;25.70;39.90;;;;;;5002767;28;87127;-94
2023/07/04 00:06:10;;;;;;;2.65;2.00;;;25.70;39.90;;;;;;5019945;28;89203;-96
2023/07/04 00:08:36;;;;;;;2.03;1.77;;;25.70;39.80;;;;;;5020750;28;89262;-94
2023/07/04 00:11:04;;;;;;;4.63;2.15;;;25.60;40.00;;;;;;5019862;28;90606;-94
2023/07/04 00:13:31;;;;;;;3.53;2.20;;;25.80;39.80;;;;;;5020350;28;86959;-95
2023/07/04 00:15:58;;;;;;;4.28;2.13;;;25.80;40.00;;;;;;5019409;28;89281;-95
2023/07/04 00:18:25;;;;;;;3.22;2.10;;;25.70;40.00;;;;;;5004349;28;89485;-94
2023/07/04 00:20:56;;;;;;;3.95;2.22;;;25.70;40.00;;;;;;5037278;27;89219;-93
2023/07/04 00:23:24;;;;;;;2.70;1.75;;;25.70;40.10;;;;;;5018375;28;87460;-95
2023/07/04 00:25:52;;;;;;;4.07;2.20;;;25.60;40.10;;;;;;5035924;28;87502;-96
2023/07/04 00:28:21;;;;;;;2.80;2.17;;;25.60;40.20;;;;;;5034914;27;88991;-96
2023/07/04 00:30:47;;;;;;;3.83;2.45;;;25.60;40.20;;;;;;5020846;28;88234;-94
2023/07/04 00:33:13;;;;;;;2.22;1.60;;;25.60;40.20;;;;;;5021718;28;88001;-96
2023/07/04 00:35:39;;;;;;;2.67;1.90;;;25.60;40.30;;;;;;5019606;28;89122;-95
2023/07/04 00:38:05;;;;;;;3.15;1.90;;;25.60;40.20;;;;;;5021655;28;88591;-94
2023/07/04 00:40:31;;;;;;;3.25;2.03;;;25.60;40.20;;;;;;5021240;28;89840;-94
2023/07/04 00:43:02;;;;;;;4.28;1.90;;;25.60;40.30;;;;;;5019525;28;87625;-95
2023/07/04 00:45:31;;;;;;;3.22;2.28;;;25.60;40.30;;;;;;5020143;28;89586;-96
2023/07/04 00:48:00;;;;;;;;;;;25.60;40.30;;;;;;5020939;28;94997;-94
2023/07/04 00:50:31;;;;;;;3.30;1.77;;;25.70;40.10;;;;;;5021733;28;89621;-92
2023/07/04 00:53:02;;;;;;;3.80;1.83;;;25.60;40.10;;;;;;5035421;28;87397;-95
2023/07/04 00:55:30;;;;;;;3.30;2.10;;;25.60;40.30;;;;;;5021943;28;87482;-94
2023/07/04 00:57:55;;;;;;;3.80;2.22;;;25.60;40.30;;;;;;5018149;28;88953;-95
2023/07/04 01:00:23;;;;;;;2.75;1.80;;;25.50;40.30;;;;;;5020285;28;90692;-96
2023/07/04 01:03:06;;;;;;;3.05;1.90;;;25.60;40.50;;;;;;5018492;28;86929;-94
2023/07/04 01:05:36;;;;;;;3.35;1.92;;;25.50;40.50;;;;;;5002197;28;94679;-94
2023/07/04 01:08:33;;;;;;;3.08;2.20;;;25.50;40.60;;;;;;5018656;28;90464;-92
2023/07/04 01:11:04;;;;;;;3.33;2.00;;;25.50;40.70;;;;;;5024776;28;90303;-96
2023/07/04 01:13:35;;;;;;;2.08;1.67;;;25.50;40.80;;;;;;5024834;28;88022;-94
2023/07/04 01:16:09;;;;;;;5.10;2.38;;;25.50;40.70;;;;;;5022852;28;89157;-93
2023/07/04 01:18:37;;;;;;;2.83;1.88;;;25.50;40.70;;;;;;5024559;28;89710;-96
2023/07/04 01:21:05;;;;;;;3.35;2.17;;;25.40;40.70;;;;;;5025470;28;89810;-96
2023/07/04 01:23:39;;;;;;;3.05;1.88;;;25.50;40.70;;;;;;5023628;28;87764;-96
2023/07/04 01:26:30;;;;;;;3.40;1.90;;;25.40;40.70;;;;;;5023836;28;88743;-93
2023/07/04 01:28:56;;;;;;;4.15;2.13;;;25.50;40.80;;;;;;5020595;28;89595;-95
2023/07/04 01:31:25;;;;;;;2.92;2.05;;;25.50;40.90;;;;;;5022830;28;87435;-95
2023/07/04 01:33:52;;;;;;;3.75;1.70;;;25.50;40.80;;;;;;5023146;28;87007;-95
2023/07/04 01:36:22;;;;;;;2.67;1.83;;;25.50;40.70;;;;;;5038715;28;89261;-96
2023/07/04 01:38:48;;;;;;;4.30;2.15;;;25.40;40.60;;;;;;5021838;28;90382;-96
2023/07/04 01:41:15;;;;;;;2.85;2.10;;;25.40;40.80;;;;;;5023412;28;87805;-92
2023/07/04 01:43:43;;;;;;;3.22;1.88;;;25.40;40.90;;;;;;5009394;28;86892;-93
2023/07/04 01:46:09;;;;;;;3.45;1.98;;;25.40;40.80;;;;;;5022561;28;88271;-91
2023/07/04 01:48:34;;;;;;;4.25;1.75;;;25.40;40.70;;;;;;5022780;28;90396;-93
2023/07/04 01:51:00;;;;;;;3.53;2.00;;;25.40;40.80;;;;;;5025321;28;89606;-94
2023/07/04 01:53:26;;;;;;;2.78;1.92;;;25.40;40.80;;;;;;5006494;28;87559;-96
2023/07/04 01:55:52;;;;;;;3.13;1.88;;;25.40;40.80;;;;;;5020987;28;89599;-96
2023/07/04 01:58:17;;;;;;;3.55;2.17;;;25.40;40.90;;;;;;5023102;28;87581;-96
2023/07/04 02:00:43;;;;;;;3.30;2.20;;;25.40;41.00;;;;;;5019370;28;89884;-96
2023/07/04 02:03:09;;;;;;;2.70;1.90;;;25.40;41.00;;;;;;5021848;28;86957;-95
2023/07/04 02:05:35;;;;;;;2.65;1.70;;;25.40;41.10;;;;;;5019494;28;88130;-96
2023/07/04 02:08:01;;;;;;;2.80;2.08;;;25.40;41.00;;;;;;5020560;28;91494;-94
2023/07/04 02:10:27;;;;;;;2.92;1.75;;;25.30;41.10;;;;;;5019137;28;87949;-96
2023/07/04 02:12:53;;;;;;;4.07;1.98;;;25.30;41.20;;;;;;5022261;27;88335;-96
2023/07/04 02:15:18;;;;;;;3.10;1.85;;;25.30;41.20;;;;;;5018613;28;87981;-96
2023/07/04 02:17:44;;;;;;;3.42;2.10;;;25.30;41.30;;;;;;5018784;28;89398;-92
2023/07/04 02:20:10;;;;;;;3.50;1.88;;;25.20;41.20;;;;;;5016205;28;89873;-94
2023/07/04 02:22:38;;;;;;;3.28;2.13;;;25.20;41.30;;;;;;5017953;27;87490;-96
2023/07/04 02:25:04;;;;;;;3.03;2.13;;;25.20;41.30;;;;;;5021390;28;89817;-95
2023/07/04 02:27:31;;;;;;;3.17;1.75;;;25.20;41.20;;;;;;5024350;28;90286;-94
2023/07/04 02:29:57;;;;;;;2.88;1.75;;;25.20;41.20;;;;;;5024602;28;92454;-94
2023/07/04 02:32:23;;;;;;;2.75;1.70;;;25.30;41.40;;;;;;5023840;28;87672;-93
2023/07/04 02:34:49;;;;;;;2.58;1.50;;;25.20;41.40;;;;;;5023323;28;87018;-94
2023/07/04 02:37:14;;;;;;;2.22;1.63;;;25.20;41.40;;;;;;5018975;28;91939;-93
2023/07/04 02:39:40;;;;;;;2.80;1.95;;;25.20;41.50;;;;;;5019360;28;89860;-94
2023/07/04 02:42:07;;;;;;;2.00;1.65;;;25.20;41.50;;;;;;5019123;28;86952;-95
2023/07/04 02:44:34;;;;;;;2.38;1.45;;;25.20;41.50;;;;;;5018821;28;89594;-93
2023/07/04 02:46:59;;;;;;;2.17;1.75;;;25.20;41.60;;;;;;5041792;27;89983;-96
2023/07/04 02:49:25;;;;;;;2.85;2.05;;;25.20;41.60;;;;;;5021562;28;89407;-95
2023/07/04 02:51:51;;;;;;;3.30;1.75;;;25.20;41.50;;;;;;5025222;27;86879;-95
2023/07/04 02:54:20;;;;;;;2.58;1.48;;;25.20;41.50;;;;;;5026915;28;89262;-95
2023/07/04 02:56:46;;;;;;;2.38;1.85;;;25.20;41.60;;;;;;5025336;28;88765;-96
2023/07/04 02:59:11;;;;;;;2.90;1.92;;;25.20;41.70;;;;;;5021457;28;88598;-95
2023/07/04 03:01:37;;;;;;;2.45;1.70;;;25.20;41.70;;;;;;5025755;28;87854;-95
2023/07/04 03:04:03;;;;;;;2.70;1.73;;;25.20;41.70;;;;;;5022652;28;87385;-96
2023/07/04 03:06:29;;;;;;;3.10;1.92;;;25.20;41.70;;;;;;5023446;28;89531;-96
2023/07/04 03:08:56;;;;;;;2.92;1.80;;;25.20;41.60;;;;;;5026540;28;90237;-96
2023/07/04 03:11:22;;;;;;;3.38;1.88;;;25.20;41.60;;;;;;5024109;28;86778;-96
2023/07/04 03:13:49;;;;;;;2.63;1.90;;;25.20;41.60;;;;;;5023445;28;86830;-93
2023/07/04 03:16:14;;;;;;;2.45;1.77;;;25.20;41.70;;;;;;5023847;28;86885;-96
2023/07/04 03:18:40;;;;;;;5.82;2.08;;;25.20;41.60;;;;;;5023833;28;88603;-96
2023/07/04 03:21:06;;;;;;;3.13;1.80;;;25.30;41.50;;;;;;5023102;28;87090;-96
2023/07/04 03:23:31;;;;;;;3.33;2.17;;;25.30;41.50;;;;;;5023984;28;88351;-96
2023/07/04 03:25:58;;;;;;;3.20;1.70;;;25.30;41.50;;;;;;5021665;28;90255;-96
2023/07/04 03:28:24;;;;;;;2.50;1.65;;;25.20;41.50;;;;;;5023977;28;89775;-95
2023/07/04 03:30:50;;;;;;;2.28;1.60;;;25.20;41.70;;;;;;5024173;28;87971;-95
2023/07/04 03:33:15;;;;;;;4.05;2.05;;;25.20;41.90;;;;;;5025675;28;87176;-96
2023/07/04 03:35:41;;;;;;;2.85;1.88;;;25.30;41.60;;;;;;5023942;28;89334;-96
2023/07/04 03:38:07;;;;;;;3.08;1.90;;;25.30;41.60;;;;;;5024512;28;88930;-95
2023/07/04 03:40:32;;;;;;;2.13;1.80;;;25.30;41.60;;;;;;5024886;28;87006;-93
2023/07/04 03:42:58;;;;;;;2.30;1.77;;;25.20;41.60;;;;;;5027322;28;89804;-93
2023/07/04 03:45:24;;;;;;;2.95;1.42;;;25.20;41.50;;;;;;5008388;28;88405;-96
2023/07/04 03:47:49;;;;;;;3.00;2.00;;;25.30;41.50;;;;;;5027049;28;87419;-93
2023/07/04 03:50:15;;;;;;;2.30;1.70;;;25.40;41.40;;;;;;5024845;28;88188;-96
2023/07/04 03:52:41;;;;;;;2.95;1.83;;;25.30;41.60;;;;;;5025417;28;88373;-96
2023/07/04 03:55:07;;;;;;;2.92;1.88;;;25.40;41.60;;;;;;5025566;28;89836;-96
2023/07/04 03:57:33;;;;;;;2.55;1.83;;;25.40;41.60;;;;;;5026942;28;90008;-94
2023/07/04 03:59:59;;;;;;;2.65;1.58;;;25.40;41.50;;;;;;5022952;28;87809;-94
2023/07/04 04:02:25;;;;;;;3.13;1.83;;;25.40;41.50;;;;;;5005179;28;89693;-96
2023/07/04 04:04:51;;;;;;;2.80;1.73;;;25.40;41.50;;;;;;5024082;28;87624;-95
2023/07/04 04:07:20;;;;;;;2.55;1.80;;;25.30;41.50;;;;;;5027029;28;88552;-95
2023/07/04 04:09:46;;;;;;;3.30;1.80;;;25.40;41.50;;;;;;5022958;28;88052;-95
2023/07/04 04:14:39;;;;;;;5.17;1.80;;;25.30;41.60;;;;;;5000801;27;88906;-91
2023/07/04 04:17:05;;;;;;;2.47;1.83;;;25.40;41.60;;;;;;5007611;28;91353;-91
2023/07/04 04:19:31;;;;;;;2.97;2.05;;;25.40;41.60;;;;;;5006301;28;87529;-92
2023/07/04 04:21:57;;;;;;;2.90;1.90;;;25.40;41.60;;;;;;5009183;28;87726;-92
2023/07/04 04:24:23;;;;;;;3.03;1.70;;;25.50;41.50;;;;;;5010200;28;88198;-92
2023/07/04 04:26:49;;;;;;;3.25;1.83;;;25.40;41.50;;;;;;5009068;28;87831;-91
2023/07/04 04:29:17;;;;;;;1.88;1.60;;;25.60;41.60;;;;;;5007321;28;87815;-92
2023/07/04 04:31:44;;;;;;;2.47;1.60;;;25.50;41.50;;;;;;5008383;28;86461;-91
2023/07/04 04:34:09;;;;;;;2.47;1.60;;;25.60;41.50;;;;;;5005209;28;90692;-89
2023/07/04 04:36:35;;;;;;;2.30;1.65;;;25.60;41.30;;;;;;5007265;28;87208;-90
2023/07/04 04:39:02;;;;;;;2.95;1.98;;;25.60;42.10;;;;;;5006866;28;89186;-91
2023/07/04 04:41:29;;;;;;;3.83;1.92;;;25.50;41.30;;;;;;5009024;28;87054;-89
2023/07/04 04:43:55;;;;;;;1.90;1.67;;;25.60;41.30;;;;;;5008523;28;87840;-89
2023/07/04 04:46:22;;;;;;;1.77;1.48;;;25.70;41.20;;;;;;5012172;27;89292;-91
2023/07/04 04:48:49;;;;;;;1.83;1.60;;;25.60;41.20;;;;;;5011569;28;87717;-91
2023/07/04 04:51:14;;;;;;;3.03;1.70;;;25.60;41.40;;;;;;5012706;28;87879;-90
2023/07/04 04:53:42;;;;;;;2.63;1.75;;;25.60;41.50;;;;;;5011666;28;88060;-88
2023/07/04 04:56:08;;;;;;;2.60;1.60;;;25.50;41.50;;;;;;5011174;28;89649;-90
2023/07/04 04:58:35;;;;;;;3.35;2.05;;;25.60;41.50;;;;;;5011816;28;87479;-90
2023/07/04 05:01:17;;;;;;;2.53;1.60;;;25.50;41.30;;;;;;5026243;27;89718;-93
2023/07/04 05:03:44;;;;;;;2.60;1.77;;;25.70;41.30;;;;;;5010264;28;90746;-90
2023/07/04 05:06:10;;;;;;;1.50;1.10;;;25.80;41.00;;;;;;5013327;28;88809;-90
2023/07/04 05:08:36;;;;;;;2.22;1.63;;;25.80;41.00;;;;;;5011837;28;87859;-90
2023/07/04 05:11:07;;;;;;;2.92;1.83;;;25.80;41.00;;;;;;5011223;28;88014;-91
2023/07/04 05:13:34;;;;;;;1.67;1.55;;;25.60;41.30;;;;;;5027601;27;90305;-92
2023/07/04 05:16:01;;;;;;;3.03;1.85;;;25.40;41.70;;;;;;5013048;28;87936;-91
2023/07/04 05:18:28;;;;;;;3.45;1.88;;;25.40;42.00;;;;;;5012046;28;87862;-88
2023/07/04 05:21:00;;;;;;;2.05;1.30;;;25.40;42.10;;;;;;5010070;28;89903;-92
2023/07/04 05:23:26;;;;;;;2.63;1.85;;;25.30;42.00;;;;;;5010198;28;89163;-91
2023/07/04 05:26:07;;;;;;;2.05;1.67;;;25.30;42.20;;;;;;5011124;28;87782;-91
2023/07/04 05:28:33;;;;;;;2.70;1.80;;;25.30;42.10;;;;;;5010885;28;88433;-91
2023/07/04 05:31:04;;;;;;;2.20;1.45;;;25.30;42.10;;;;;;5012534;28;87206;-88
2023/07/04 05:33:30;;;;;;;2.78;1.70;;;25.40;42.20;;;;;;5013247;28;87545;-90
2023/07/04 05:36:14;;;;;;;8.30;2.63;;;25.40;42.10;;;;;;5008285;27;87955;-89
2023/07/04 05:38:40;;;;;;;13.57;3.22;;;25.60;41.80;;;;;;5007000;28;87893;-88
2023/07/04 05:41:11;;;;;;;10.02;2.70;;;25.70;41.70;;;;;;5005085;28;87338;-89
2023/07/04 05:43:37;;;;;;;16.73;3.72;;;25.60;42.00;;;;;;5005875;28;88851;-88
2023/07/04 05:46:02;;;;;;;22.73;5.78;;;25.50;42.20;;;;;;5009823;28;87498;-90
2023/07/04 05:48:28;;;;;;;36.50;9.98;;;25.60;42.30;;;;;;5008675;28;87547;-89
2023/07/04 05:50:56;;;;;;;45.67;10.15;;;25.70;42.00;;;;;;5007412;28;87982;-88
2023/07/04 05:53:24;;;;;;;47.38;12.05;;;25.60;42.10;;;;;;5003468;28;91128;-87
2023/07/04 05:55:51;;;;;;;41.20;9.82;;;25.60;42.30;;;;;;5003336;28;90319;-89
2023/07/04 05:58:18;;;;;;;41.92;10.85;;;25.80;42.40;;;;;;5006660;28;87718;-90
2023/07/04 06:00:44;;;;;;;44.70;11.05;;;25.80;42.50;;;;;;5021506;28;88522;-90
2023/07/04 06:03:10;;;;;;;40.33;10.35;;;25.80;43.50;;;;;;5009902;28;89046;-92
2023/07/04 06:05:39;;;;;;;37.58;10.38;;;26.00;42.70;;;;;;5008484;28;89703;-91
2023/07/04 06:08:05;;;;;;;31.60;8.77;;;25.80;42.90;;;;;;5009129;28;87548;-90
2023/07/04 06:10:31;;;;;;;33.15;8.95;;;25.80;42.90;;;;;;5010309;28;87989;-89
2023/07/04 06:12:57;;;;;;;22.20;7.03;;;25.80;43.00;;;;;;5008773;28;90016;-89
2023/07/04 06:15:23;;;;;;;22.90;6.28;;;26.00;42.90;;;;;;5006726;28;90580;-88
2023/07/04 06:17:49;;;;;;;30.52;8.82;;;25.90;42.90;;;;;;5010458;28;88519;-91
2023/07/04 06:20:14;;;;;;;27.02;6.50;;;25.80;43.10;;;;;;5015055;28;88285;-90
2023/07/04 06:22:40;;;;;;;41.90;8.35;;;25.90;43.10;;;;;;5011689;28;88273;-88
2023/07/04 06:25:06;;;;;;;25.17;7.50;;;25.90;43.20;;;;;;5009867;28;87846;-89
2023/07/04 06:27:32;;;;;;;26.77;7.80;;;25.90;43.30;;;;;;5008124;28;88158;-88
2023/07/04 06:29:58;;;;;;;29.40;6.57;;;26.00;43.40;;;;;;5009608;28;89525;-88
2023/07/04 06:32:23;;;;;;;25.63;5.70;;;26.00;43.30;;;;;;5006864;28;91437;-87
2023/07/04 06:34:49;;;;;;;28.10;6.53;;;26.10;43.80;;;;;;5008845;28;87029;-87
2023/07/04 06:37:15;;;;;;;26.35;6.72;;;26.00;43.30;;;;;;5006507;28;88449;-90
2023/07/04 06:39:42;;;;;;;21.58;6.20;;;26.00;43.10;;;;;;5008703;28;87713;-86
2023/07/04 06:42:07;;;;;;;19.83;5.53;;;26.00;43.40;;;;;;5005383;28;88909;-87
2023/07/04 06:44:33;;;;;;;28.90;5.68;;;25.90;43.60;;;;;;5002809;28;91609;-87
2023/07/04 06:46:59;;;;;;;21.55;5.28;;;26.00;43.40;;;;;;5006260;28;87409;-85
2023/07/04 06:49:24;;;;;;;24.70;5.47;;;26.00;43.40;;;;;;5006171;28;87789;-85
2023/07/04 06:51:52;;;;;;;20.60;5.38;;;26.10;43.10;;;;;;5002264;28;89275;-87
2023/07/04 06:54:18;;;;;;;21.42;5.32;;;26.00;42.90;;;;;;5003608;28;87972;-86
2023/07/04 06:56:43;;;;;;;21.23;4.80;;;26.00;42.80;;;;;;5004529;28;87166;-86
2023/07/04 06:59:09;;;;;;;21.77;4.88;;;26.00;42.80;;;;;;5001867;28;89612;-88
2023/07/04 07:01:38;;;;;;;17.63;4.65;;;26.00;42.70;;;;;;5002011;27;89541;-86
2023/07/04 07:04:04;;;;;;;15.27;3.83;;;26.10;42.60;;;;;;4999645;28;90852;-86
2023/07/04 07:06:31;;;;;;;17.42;4.25;;;26.10;42.60;;;;;;5000599;28;89151;-85
2023/07/04 07:08:57;;;;;;;17.27;4.35;;;26.10;42.40;;;;;;4989368;28;87932;-84
2023/07/04 07:15:09;;;;;;;9.48;3.33;;;26.00;42.50;;;;;;4959059;28;91818;-88
2023/07/04 07:17:35;;;;;;;15.60;3.95;;;26.20;42.40;;;;;;4996940;28;88041;-86
2023/07/04 07:20:00;;;;;;;12.10;3.78;;;26.40;42.20;;;;;;5001933;27;87925;-87
2023/07/04 07:22:26;;;;;;;11.20;3.45;;;26.40;41.70;;;;;;5000642;28;87876;-86
2023/07/04 07:24:52;;;;;;;11.27;3.75;;;26.40;41.80;;;;;;4997059;28;90441;-87
2023/07/04 07:27:17;;;;;;;10.70;3.20;;;26.50;41.70;;;;;;5004384;28;87990;-91
2023/07/04 07:29:47;;;;;;;12.18;3.45;;;26.40;42.00;;;;;;5000455;28;88307;-85
2023/07/04 07:32:13;;;;;;;13.63;3.70;;;26.40;41.90;;;;;;5000428;28;89378;-87
2023/07/04 07:34:39;;;;;;;9.00;3.78;;;26.50;41.70;;;;;;5000412;28;91026;-87
2023/07/04 07:37:06;;;;;;;9.88;3.55;;;26.50;41.80;;;;;;5001727;28;87466;-92
2023/07/04 07:39:34;;;;;;;16.73;3.83;;;26.60;42.00;;;;;;5011124;28;88006;-96
2023/07/04 07:42:01;;;;;;;12.93;3.28;;;26.60;42.50;;;;;;5001869;28;92337;-96
2023/07/04 07:44:27;;;;;;;11.73;3.42;;;26.70;42.50;;;;;;5022359;28;89078;-94
2023/07/04 07:46:53;;;;;;;13.68;3.45;;;26.70;42.60;;;;;;5015705;27;87210;-95
2023/07/04 07:49:18;;;;;;;11.05;3.50;;;26.70;42.80;;;;;;5025011;28;89188;-93
2023/07/04 07:51:44;;;;;;;10.38;3.65;;;26.60;43.20;;;;;;5007875;28;90797;-92
2023/07/04 07:54:14;;;;;;;10.20;3.13;;;26.70;43.30;;;;;;5011371;28;90566;-94
2023/07/04 07:56:44;;;;;;;12.25;3.40;;;26.80;43.20;;;;;;5010321;28;88631;-94
2023/07/04 07:59:11;;;;;;;18.42;3.80;;;26.80;43.50;;;;;;5004790;28;89962;-95
2023/07/04 08:01:47;;;;;;;19.10;4.65;;;26.80;43.60;;;;;;5008058;28;90502;-95
2023/07/04 08:04:14;;;;;;;16.98;4.22;;;26.90;44.00;;;;;;5004554;28;89322;-95
2023/07/04 08:06:42;;;;;;;12.52;3.17;;;26.80;44.20;;;;;;5009652;28;87161;-93
2023/07/04 08:09:11;;;;;;;13.93;4.27;;;26.90;44.20;;;;;;5015678;28;87412;-94
2023/07/04 08:11:38;;;;;;;13.27;4.28;;;26.80;44.90;;;;;;5012376;28;89892;-94
2023/07/04 08:14:04;;;;;;;12.15;3.40;;;26.80;44.40;;;;;;5014628;28;88739;-95
2023/07/04 08:16:40;;;;;;;11.77;4.07;;;26.70;44.50;;;;;;5015565;28;87523;-93
2023/07/04 08:19:08;;;;;;;25.08;6.07;;;26.60;44.60;;;;;;5028452;27;89417;-91
2023/07/04 08:21:34;;;;;;;18.98;4.95;;;26.60;44.90;;;;;;5025545;28;90347;-94
2023/07/04 08:23:59;;;;;;;19.23;5.53;;;26.60;44.70;;;;;;5018758;28;88532;-94
2023/07/04 08:26:26;;;;;;;23.40;7.75;;;26.70;44.60;;;;;;5021058;28;87486;-94
2023/07/04 08:28:53;;;;;;;29.15;9.60;;;26.80;44.60;;;;;;5020012;28;89407;-95
2023/07/04 08:31:47;;;;;;;28.60;8.95;;;26.80;44.30;;;;;;5035766;27;90217;-95
2023/07/04 08:34:48;;;;;;;24.52;7.75;;;26.90;44.30;;;;;;5035407;28;87356;-95
2023/07/04 08:37:14;;;;;;;25.65;7.68;;;26.90;44.50;;;;;;5012255;28;87632;-92
2023/07/04 08:39:46;;;;;;;23.10;7.80;;;27.00;45.20;;;;;;5017481;28;87999;-95
2023/07/04 08:42:14;;;;;;;24.95;8.18;;;27.00;44.60;;;;;;5018240;28;88326;-94
2023/07/04 08:44:44;;;;;;;30.00;7.27;;;27.00;44.60;;;;;;5016178;28;91726;-94
2023/07/04 08:47:13;;;;;;;27.65;7.95;;;27.00;44.90;;;;;;5014175;28;88458;-93
2023/07/04 08:49:45;;;;;;;29.50;8.48;;;27.10;44.80;;;;;;5014234;27;87453;-93
2023/07/04 08:52:23;;;;;;;26.80;7.47;;;27.10;44.60;;;;;;5011859;28;90883;-94
2023/07/04 08:54:50;;;;;;;27.20;7.20;;;27.10;44.80;;;;;;5015577;28;90318;-93
2023/07/04 08:57:36;;;;;;;21.77;7.25;;;27.10;44.70;;;;;;5014950;28;87426;-96
2023/07/04 09:00:12;;;;;;;28.35;8.10;;;27.00;44.60;;;;;;5015417;28;93797;-93
2023/07/04 09:03:11;;;;;;;19.88;5.95;;;27.10;44.50;;;;;;5011434;28;88477;-94
2023/07/04 09:06:17;;;;;;;19.65;5.75;;;27.00;44.40;;;;;;4971910;28;89377;-93
2023/07/04 09:08:55;;;;;;;21.52;7.18;;;27.00;44.10;;;;;;5006818;28;87761;-94
2023/07/04 09:11:22;;;;;;;20.35;6.22;;;27.10;44.00;;;;;;5009693;28;89731;-90
2023/07/04 09:13:59;;;;;;;13.73;5.75;;;27.00;44.20;;;;;;5006475;28;88994;-90
2023/07/04 09:16:34;;;;;;;16.20;4.97;;;27.10;43.00;;;;;;4998295;28;88543;-89
2023/07/04 09:19:34;;;;;;;15.38;4.55;;;27.10;42.50;;;;;;5008648;28;87733;-89
2023/07/04 09:22:05;;;;;;;16.50;5.70;;;27.00;42.10;;;;;;5007072;28;87356;-90
2023/07/04 09:24:30;;;;;;;13.70;4.28;;;27.00;42.30;;;;;;5004642;28;90436;-88
2023/07/04 09:26:56;;;;;;;14.27;4.40;;;27.00;42.30;;;;;;5003363;28;90007;-89
2023/07/04 09:29:24;;;;;;;12.18;4.95;;;26.90;42.40;;;;;;5004765;28;88488;-88
2023/07/04 09:31:56;;;;;;;15.63;4.18;;;26.80;42.60;;;;;;5003926;28;88179;-88
2023/07/04 09:34:29;;;;;;;13.23;4.30;;;27.00;42.30;;;;;;5006588;28;88814;-85
2023/07/04 09:36:54;;;;;;;12.23;4.30;;;26.90;42.00;;;;;;5006705;28;88483;-87
2023/07/04 09:39:20;;;;;;;13.30;3.97;;;26.90;41.90;;;;;;5006790;28;89140;-86
2023/07/04 09:41:57;;;;;;;9.75;4.03;;;26.80;41.80;;;;;;5003771;28;89795;-88
2023/07/04 09:44:31;;;;;;;11.63;4.10;;;26.90;41.90;;;;;;5007007;28;90475;-88
2023/07/04 09:47:00;;;;;;;13.15;3.88;;;26.80;41.70;;;;;;5007634;28;90971;-89
2023/07/04 09:49:32;;;;;;;13.40;4.75;;;26.90;41.70;;;;;;5006428;28;87334;-87
2023/07/04 09:52:08;;;;;;;9.32;3.65;;;27.00;41.60;;;;;;5004178;28;89723;-89
2023/07/04 09:54:39;;;;;;;9.88;3.08;;;27.10;42.10;;;;;;5010066;28;88136;-86
2023/07/04 09:57:25;;;;;;;10.48;3.63;;;27.10;41.30;;;;;;5007971;28;90389;-86
2023/07/04 09:59:52;;;;;;;10.98;3.22;;;27.10;41.10;;;;;;5006989;28;88156;-90
2023/07/04 10:02:35;;;;;;;8.00;3.00;;;27.20;41.50;;;;;;5008061;28;87729;-89
2023/07/04 10:05:01;;;;;;;13.05;3.20;;;27.20;41.60;;;;;;5008686;28;89537;-89
2023/07/04 10:07:27;;;;;;;11.65;3.83;;;27.20;41.40;;;;;;5007283;28;91283;-89
2023/07/04 10:09:58;;;;;;;9.55;3.75;;;27.30;41.60;;;;;;5008154;28;87800;-89
2023/07/04 10:12:25;;;;;;;10.73;3.97;;;27.30;41.50;;;;;;5025146;27;88526;-87
2023/07/04 10:14:54;;;;;;;10.05;3.53;;;27.20;41.60;;;;;;5007349;28;90270;-88
2023/07/04 10:17:21;;;;;;;;;;;27.20;41.80;;;;;;5024526;27;90078;-89
2023/07/04 10:19:54;;;;;;;6.97;2.72;;;27.20;41.80;;;;;;5009084;28;87362;-89
2023/07/04 10:22:26;;;;;;;9.18;3.38;;;27.10;41.80;;;;;;5005899;28;88518;-89
2023/07/04 10:24:51;;;;;;;8.10;3.63;;;27.10;42.00;;;;;;5007146;28;89791;-88
2023/07/04 10:27:20;;;;;;;8.38;3.40;;;27.00;42.10;;;;;;5008621;28;88085;-88
2023/07/04 10:29:54;;;;;;;8.85;3.10;;;27.10;41.90;;;;;;5007364;28;89479;-88
2023/07/04 10:32:21;;;;;;;7.63;3.45;;;27.10;42.10;;;;;;5006066;28;87678;-88
2023/07/04 10:34:48;;;;;;;10.35;3.38;;;27.00;42.00;;;;;;5008121;28;88003;-88
2023/07/04 10:37:31;;;;;;;9.27;3.80;;;27.00;42.10;;;;;;5073444;22;90066;-90
2023/07/04 10:39:59;;;;;;;8.48;3.67;;;26.90;42.20;;;;;;5005702;28;87009;-90
2023/07/04 10:42:31;;;;;;;;;;;27.00;42.30;;;;;;5006140;28;90105;-90
2023/07/04 10:44:58;;;;;;;10.68;3.33;;;27.00;42.10;;;;;;5006256;28;90516;-91
2023/07/04 10:47:32;;;;;;;10.52;3.53;;;27.00;42.10;;;;;;5008798;28;88937;-91
2023/07/04 10:50:16;;;;;;;8.90;3.17;;;27.00;42.20;;;;;;5008857;28;88006;-90
2023/07/04 10:52:45;;;;;;;6.32;2.88;;;27.00;41.90;;;;;;5006879;28;89878;-90
2023/07/04 10:55:39;;;;;;;8.50;3.42;;;27.00;42.00;;;;;;5008973;28;88911;-90
2023/07/04 10:58:14;;;;;;;5.97;3.05;;;26.90;41.90;;;;;;5006517;28;91761;-90
2023/07/04 11:00:50;;;;;;;8.50;3.20;;;26.90;41.90;;;;;;5008727;28;87515;-90
2023/07/04 11:03:32;;;;;;;7.07;3.47;;;26.90;41.90;;;;;;5007368;28;89828;-90
2023/07/04 11:06:00;;;;;;;9.57;3.42;;;26.90;41.90;;;;;;5004846;28;90481;-91
2023/07/04 11:08:29;;;;;;;6.85;3.20;;;26.90;42.20;;;;;;5006040;28;87895;-91
2023/07/04 11:11:05;;;;;;;6.10;3.55;;;26.90;42.00;;;;;;5008596;28;87261;-90
2023/07/04 11:13:32;;;;;;;7.70;3.30;;;26.90;42.10;;;;;;5009246;28;87573;-90
2023/07/04 11:16:08;;;;;;;7.18;3.20;;;27.00;42.50;;;;;;5010731;28;90572;-92
2023/07/04 11:18:39;;;;;;;9.07;3.17;;;26.90;42.70;;;;;;5012673;28;87852;-92
2023/07/04 11:21:13;;;;;;;10.77;3.13;;;27.00;43.20;;;;;;4988729;28;88459;-93
2023/07/04 11:23:52;;;;;;;8.35;3.58;;;27.00;43.10;;;;;;5022307;27;88139;-93
2023/07/04 11:26:58;;;;;;;6.93;3.45;;;27.00;43.30;;;;;;5007132;28;89442;-92
2023/07/04 11:29:24;;;;;;;9.68;3.70;;;27.10;43.10;;;;;;4999125;28;89695;-91
2023/07/04 11:32:02;;;;;;;8.70;3.22;;;27.10;43.30;;;;;;5007505;28;87698;-91
2023/07/04 11:34:48;;;;;;;9.47;3.30;;;27.10;43.50;;;;;;5006334;28;89203;-91
2023/07/04 11:37:24;;;;;;;5.65;2.75;;;27.10;43.50;;;;;;5000144;28;94449;-92
2023/07/04 11:39:54;;;;;;;13.25;3.75;;;27.10;43.60;;;;;;5006706;28;87438;-91
2023/07/04 11:42:23;;;;;;;11.35;4.22;;;27.20;43.60;;;;;;5006448;28;87528;-92
2023/07/04 11:44:51;;;;;;;;;;;27.10;43.80;;;;;;5008703;28;87716;-92
2023/07/04 11:47:33;;;;;;;18.58;5.35;;;27.10;43.90;;;;;;5005645;28;87897;-92
2023/07/04 11:50:03;;;;;;;13.20;4.85;;;27.10;43.80;;;;;;5005960;28;90159;-95
2023/07/04 11:52:31;;;;;;;15.38;5.55;;;27.10;43.90;;;;;;5005773;28;92256;-93
2023/07/04 11:55:10;;;;;;;14.38;4.90;;;27.10;43.80;;;;;;5007486;28;87992;-96
2023/07/04 11:57:59;;;;;;;19.40;5.10;;;27.20;43.90;;;;;;5009194;28;89240;-95
2023/07/04 12:00:39;;;;;;;12.57;5.00;;;27.10;43.90;;;;;;5012894;28;88153;-93
2023/07/04 12:03:17;;;;;;;14.13;4.78;;;27.10;43.90;;;;;;5007523;28;87796;-93
2023/07/04 12:05:58;;;;;;;17.30;4.43;;;27.20;42.10;;;;;;5004700;28;89393;-94
2023/07/04 12:08:33;;;;;;;12.10;4.50;;;27.10;42.60;;;;;;5008598;28;89487;-94
2023/07/04 12:11:03;;;;;;;13.27;3.75;;;27.10;42.40;;;;;;5007627;28;89744;-93
2023/07/04 12:13:32;;;;;;;10.45;5.05;;;27.00;42.50;;;;;;5002951;28;88708;-93
2023/07/04 12:15:58;;;;;;;8.10;4.22;;;26.90;42.00;;;;;;5004872;28;89596;-95
2023/07/04 12:18:29;;;;;;;10.45;4.60;;;26.90;41.90;;;;;;5001841;28;87833;-93
2023/07/04 12:20:57;;;;;;;8.63;4.28;;;26.80;41.90;;;;;;5009048;28;88790;-92
2023/07/04 12:23:24;;;;;;;15.32;4.38;;;26.90;42.50;;;;;;5016538;28;87557;-95
2023/07/04 12:25:52;;;;;;;7.85;4.22;;;27.00;42.40;;;;;;5008107;28;88027;-96
2023/07/04 12:28:23;;;;;;;9.25;4.80;;;27.00;41.90;;;;;;5003922;28;90382;-96
2023/07/04 12:30:55;;;;;;;10.85;4.68;;;27.10;42.20;;;;;;5004606;28;90289;-96
2023/07/04 12:33:30;;;;;;;10.38;4.45;;;26.90;42.00;;;;;;5011615;28;87500;-96
2023/07/04 12:36:06;;;;;;;8.32;3.83;;;27.00;42.30;;;;;;5013539;28;88199;-96
2023/07/04 12:38:37;;;;;;;11.70;4.72;;;27.10;42.50;;;;;;5012007;28;90937;-91
2023/07/04 12:41:04;;;;;;;8.40;4.13;;;27.00;42.30;;;;;;5023928;27;91611;-92
2023/07/04 12:43:31;;;;;;;13.35;4.07;;;27.00;41.90;;;;;;5008626;28;87810;-93
2023/07/04 12:49:27;;;;;;;11.35;4.20;;;27.00;42.20;;;;;;5015705;28;88284;-91
2023/07/04 12:51:53;;;;;;;15.52;4.47;;;26.90;42.00;;;;;;5009191;28;90404;-92
2023/07/04 12:54:19;;;;;;;8.30;3.55;;;26.90;42.10;;;;;;5011358;28;87849;-92
2023/07/04 12:56:47;;;;;;;12.00;4.32;;;26.90;42.20;;;;;;5013902;28;89582;-96
2023/07/04 12:59:34;;;;;;;10.40;3.87;;;26.90;42.70;;;;;;5013347;28;88086;-94
2023/07/04 13:02:03;;;;;;;12.05;4.30;;;26.90;42.70;;;;;;5006225;28;87217;-91
2023/07/04 13:04:29;;;;;;;12.63;4.18;;;27.10;42.70;;;;;;5022079;27;88363;-92